sensor_id;sensor_type;location;lat;lon;timestamp;P1;durP1;ratioP1;P2;durP2;ratioP2
55288;SDS011;41154;45.394;5.734;2022-11-09T00:00:03;0.52;;;0.43;;
55288;SDS011;41154;45.394;5.734;2022-11-09T00:02:30;0.60;;;0.35;;
55288;SDS011;41154;45.394;5.734;2022-11-09T00:04:55;0.32;;;0.32;;
55288;SDS011;41154;45.394;5.734;2022-11-09T00:07:21;0.70;;;0.40;;
55288;SDS011;41154;45.394;5.734;2022-11-09T00:09:47;0.88;;;0.43;;
55288;SDS011;41154;45.394;5.734;2022-11-09T00:12:14;0.65;;;0.50;;
55288;SDS011;41154;45.394;5.734;2022-11-09T00:14:39;1.88;;;0.30;;
55288;SDS011;41154;45.394;5.734;2022-11-09T00:17:05;1.13;;;0.32;;
55288;SDS011;41154;45.394;5.734;2022-11-09T00:19:32;0.20;;;0.20;;
55288;SDS011;41154;45.394;5.734;2022-11-09T00:22:08;0.43;;;0.40;;
55288;SDS011;41154;45.394;5.734;2022-11-09T00:24:34;0.85;;;0.55;;
55288;SDS011;41154;45.394;5.734;2022-11-09T00:27:00;1.10;;;0.50;;
55288;SDS011;41154;45.394;5.734;2022-11-09T00:29:28;2.30;;;0.63;;
55288;SDS011;41154;45.394;5.734;2022-11-09T00:32:00;0.43;;;0.30;;
55288;SDS011;41154;45.394;5.734;2022-11-09T00:34:25;0.63;;;0.50;;
55288;SDS011;41154;45.394;5.734;2022-11-09T00:36:51;0.45;;;0.35;;
55288;SDS011;41154;45.394;5.734;2022-11-09T00:39:17;2.40;;;0.50;;
55288;SDS011;41154;45.394;5.734;2022-11-09T00:41:43;0.60;;;0.60;;
55288;SDS011;41154;45.394;5.734;2022-11-09T00:44:08;0.20;;;0.20;;
55288;SDS011;41154;45.394;5.734;2022-11-09T00:46:34;0.93;;;0.45;;
55288;SDS011;41154;45.394;5.734;2022-11-09T00:49:00;1.23;;;0.45;;
55288;SDS011;41154;45.394;5.734;2022-11-09T00:51:26;0.88;;;0.32;;
55288;SDS011;41154;45.394;5.734;2022-11-09T00:53:51;0.55;;;0.32;;
55288;SDS011;41154;45.394;5.734;2022-11-09T00:56:19;0.90;;;0.30;;
55288;SDS011;41154;45.394;5.734;2022-11-09T00:58:45;0.50;;;0.35;;
55288;SDS011;41154;45.394;5.734;2022-11-09T01:01:13;1.48;;;0.30;;
55288;SDS011;41154;45.394;5.734;2022-11-09T01:03:41;3.35;;;0.70;;
55288;SDS011;41154;45.394;5.734;2022-11-09T01:06:08;1.45;;;0.60;;
55288;SDS011;41154;45.394;5.734;2022-11-09T01:08:41;2.72;;;0.30;;
55288;SDS011;41154;45.394;5.734;2022-11-09T01:11:07;0.68;;;0.28;;
55288;SDS011;41154;45.394;5.734;2022-11-09T01:13:35;0.30;;;0.22;;
55288;SDS011;41154;45.394;5.734;2022-11-09T01:16:05;1.55;;;0.60;;
55288;SDS011;41154;45.394;5.734;2022-11-09T01:18:35;0.60;;;0.50;;
55288;SDS011;41154;45.394;5.734;2022-11-09T01:21:01;2.25;;;0.63;;
55288;SDS011;41154;45.394;5.734;2022-11-09T01:23:29;1.40;;;0.30;;
55288;SDS011;41154;45.394;5.734;2022-11-09T01:26:00;0.30;;;0.30;;
55288;SDS011;41154;45.394;5.734;2022-11-09T01:28:27;0.95;;;0.30;;
55288;SDS011;41154;45.394;5.734;2022-11-09T01:30:53;0.70;;;0.50;;
55288;SDS011;41154;45.394;5.734;2022-11-09T01:33:19;1.95;;;0.52;;
55288;SDS011;41154;45.394;5.734;2022-11-09T01:35:45;0.82;;;0.30;;
55288;SDS011;41154;45.394;5.734;2022-11-09T01:38:11;1.42;;;0.50;;
55288;SDS011;41154;45.394;5.734;2022-11-09T01:40:38;0.75;;;0.50;;
55288;SDS011;41154;45.394;5.734;2022-11-09T01:43:06;0.45;;;0.40;;
55288;SDS011;41154;45.394;5.734;2022-11-09T01:46:04;0.65;;;0.45;;
55288;SDS011;41154;45.394;5.734;2022-11-09T01:48:47;1.75;;;0.65;;
55288;SDS011;41154;45.394;5.734;2022-11-09T01:51:28;0.83;;;0.50;;
55288;SDS011;41154;45.394;5.734;2022-11-09T01:54:13;0.90;;;0.60;;
55288;SDS011;41154;45.394;5.734;2022-11-09T01:56:47;1.30;;;0.40;;
55288;SDS011;41154;45.394;5.734;2022-11-09T01:59:20;0.93;;;0.20;;
55288;SDS011;41154;45.394;5.734;2022-11-09T02:01:51;0.95;;;0.55;;
55288;SDS011;41154;45.394;5.734;2022-11-09T02:04:22;2.13;;;0.50;;
55288;SDS011;41154;45.394;5.734;2022-11-09T02:06:53;2.03;;;0.50;;
55288;SDS011;41154;45.394;5.734;2022-11-09T02:12:09;2.13;;;0.25;;
55288;SDS011;41154;45.394;5.734;2022-11-09T02:14:35;0.77;;;0.40;;
55288;SDS011;41154;45.394;5.734;2022-11-09T02:17:03;0.60;;;0.40;;
55288;SDS011;41154;45.394;5.734;2022-11-09T02:19:29;2.65;;;0.47;;
55288;SDS011;41154;45.394;5.734;2022-11-09T02:21:55;0.60;;;0.50;;
55288;SDS011;41154;45.394;5.734;2022-11-09T02:24:23;1.48;;;0.30;;
55288;SDS011;41154;45.394;5.734;2022-11-09T02:26:50;0.65;;;0.40;;
55288;SDS011;41154;45.394;5.734;2022-11-09T02:29:19;1.38;;;0.63;;
55288;SDS011;41154;45.394;5.734;2022-11-09T02:31:52;0.75;;;0.30;;
55288;SDS011;41154;45.394;5.734;2022-11-09T02:34:22;1.10;;;0.40;;
55288;SDS011;41154;45.394;5.734;2022-11-09T02:36:49;1.02;;;0.40;;
55288;SDS011;41154;45.394;5.734;2022-11-09T02:39:19;0.43;;;0.30;;
55288;SDS011;41154;45.394;5.734;2022-11-09T02:44:42;3.70;;;0.55;;
55288;SDS011;41154;45.394;5.734;2022-11-09T02:47:12;1.52;;;0.40;;
55288;SDS011;41154;45.394;5.734;2022-11-09T02:49:38;0.52;;;0.40;;
55288;SDS011;41154;45.394;5.734;2022-11-09T02:52:04;2.42;;;0.93;;
55288;SDS011;41154;45.394;5.734;2022-11-09T02:54:30;0.45;;;0.30;;
55288;SDS011;41154;45.394;5.734;2022-11-09T02:56:57;0.68;;;0.30;;
55288;SDS011;41154;45.394;5.734;2022-11-09T02:59:24;0.73;;;0.40;;
55288;SDS011;41154;45.394;5.734;2022-11-09T03:01:50;1.45;;;0.40;;
55288;SDS011;41154;45.394;5.734;2022-11-09T03:04:16;0.57;;;0.30;;
55288;SDS011;41154;45.394;5.734;2022-11-09T03:06:42;0.50;;;0.30;;
55288;SDS011;41154;45.394;5.734;2022-11-09T03:09:12;1.48;;;0.43;;
55288;SDS011;41154;45.394;5.734;2022-11-09T03:11:38;2.10;;;0.40;;
55288;SDS011;41154;45.394;5.734;2022-11-09T03:14:05;0.88;;;0.45;;
55288;SDS011;41154;45.394;5.734;2022-11-09T03:16:33;1.02;;;0.38;;
55288;SDS011;41154;45.394;5.734;2022-11-09T03:19:03;1.63;;;0.38;;
55288;SDS011;41154;45.394;5.734;2022-11-09T03:21:31;1.75;;;0.40;;
55288;SDS011;41154;45.394;5.734;2022-11-09T03:23:57;0.95;;;0.45;;
55288;SDS011;41154;45.394;5.734;2022-11-09T03:26:23;1.00;;;0.40;;
55288;SDS011;41154;45.394;5.734;2022-11-09T03:28:50;0.47;;;0.40;;
55288;SDS011;41154;45.394;5.734;2022-11-09T03:31:16;1.67;;;0.50;;
55288;SDS011;41154;45.394;5.734;2022-11-09T03:33:44;1.95;;;0.43;;
55288;SDS011;41154;45.394;5.734;2022-11-09T03:36:10;0.40;;;0.40;;
55288;SDS011;41154;45.394;5.734;2022-11-09T03:38:36;0.70;;;0.40;;
55288;SDS011;41154;45.394;5.734;2022-11-09T03:41:02;0.77;;;0.40;;
55288;SDS011;41154;45.394;5.734;2022-11-09T03:43:30;0.75;;;0.40;;
55288;SDS011;41154;45.394;5.734;2022-11-09T03:45:55;1.27;;;0.30;;
55288;SDS011;41154;45.394;5.734;2022-11-09T03:48:23;0.47;;;0.38;;
55288;SDS011;41154;45.394;5.734;2022-11-09T03:50:48;1.70;;;0.30;;
55288;SDS011;41154;45.394;5.734;2022-11-09T03:53:15;0.50;;;0.40;;
55288;SDS011;41154;45.394;5.734;2022-11-09T03:55:41;2.75;;;0.50;;
55288;SDS011;41154;45.394;5.734;2022-11-09T03:58:08;1.60;;;0.63;;
55288;SDS011;41154;45.394;5.734;2022-11-09T04:00:35;1.35;;;0.70;;
55288;SDS011;41154;45.394;5.734;2022-11-09T04:03:01;3.30;;;0.93;;
55288;SDS011;41154;45.394;5.734;2022-11-09T04:05:27;0.95;;;0.70;;
55288;SDS011;41154;45.394;5.734;2022-11-09T04:07:53;0.93;;;0.60;;
55288;SDS011;41154;45.394;5.734;2022-11-09T04:10:21;4.03;;;1.55;;
55288;SDS011;41154;45.394;5.734;2022-11-09T04:12:48;1.35;;;0.98;;
55288;SDS011;41154;45.394;5.734;2022-11-09T04:15:14;1.30;;;0.95;;
55288;SDS011;41154;45.394;5.734;2022-11-09T04:17:40;1.20;;;0.70;;
55288;SDS011;41154;45.394;5.734;2022-11-09T04:20:06;1.77;;;1.25;;
55288;SDS011;41154;45.394;5.734;2022-11-09T04:22:33;4.00;;;1.23;;
55288;SDS011;41154;45.394;5.734;2022-11-09T04:24:59;2.42;;;1.33;;
55288;SDS011;41154;45.394;5.734;2022-11-09T04:27:25;2.33;;;1.17;;
55288;SDS011;41154;45.394;5.734;2022-11-09T04:29:51;5.65;;;1.88;;
55288;SDS011;41154;45.394;5.734;2022-11-09T04:32:17;5.18;;;1.50;;
55288;SDS011;41154;45.394;5.734;2022-11-09T04:34:42;8.27;;;1.35;;
55288;SDS011;41154;45.394;5.734;2022-11-09T04:37:08;2.97;;;1.13;;
55288;SDS011;41154;45.394;5.734;2022-11-09T04:39:34;5.07;;;1.33;;
55288;SDS011;41154;45.394;5.734;2022-11-09T04:42:02;1.58;;;1.27;;
55288;SDS011;41154;45.394;5.734;2022-11-09T04:44:28;4.35;;;1.30;;
55288;SDS011;41154;45.394;5.734;2022-11-09T04:46:54;3.38;;;1.40;;
55288;SDS011;41154;45.394;5.734;2022-11-09T04:49:20;1.45;;;1.25;;
55288;SDS011;41154;45.394;5.734;2022-11-09T04:51:45;1.08;;;0.95;;
55288;SDS011;41154;45.394;5.734;2022-11-09T04:54:11;3.30;;;1.35;;
55288;SDS011;41154;45.394;5.734;2022-11-09T04:56:37;2.78;;;1.30;;
55288;SDS011;41154;45.394;5.734;2022-11-09T04:59:03;2.13;;;1.15;;
55288;SDS011;41154;45.394;5.734;2022-11-09T05:01:28;3.22;;;1.45;;
55288;SDS011;41154;45.394;5.734;2022-11-09T05:03:54;2.67;;;1.33;;
55288;SDS011;41154;45.394;5.734;2022-11-09T05:06:20;1.48;;;1.10;;
55288;SDS011;41154;45.394;5.734;2022-11-09T05:09:03;3.10;;;1.33;;
55288;SDS011;41154;45.394;5.734;2022-11-09T05:11:31;5.05;;;1.40;;
55288;SDS011;41154;45.394;5.734;2022-11-09T05:13:57;2.97;;;1.35;;
55288;SDS011;41154;45.394;5.734;2022-11-09T05:16:23;3.00;;;1.17;;
55288;SDS011;41154;45.394;5.734;2022-11-09T05:18:49;2.17;;;1.35;;
55288;SDS011;41154;45.394;5.734;2022-11-09T05:21:16;4.07;;;1.25;;
55288;SDS011;41154;45.394;5.734;2022-11-09T05:23:42;5.00;;;1.50;;
55288;SDS011;41154;45.394;5.734;2022-11-09T05:26:23;4.43;;;1.15;;
55288;SDS011;41154;45.394;5.734;2022-11-09T05:28:50;2.47;;;1.30;;
55288;SDS011;41154;45.394;5.734;2022-11-09T05:31:17;2.03;;;1.20;;
55288;SDS011;41154;45.394;5.734;2022-11-09T05:33:43;4.20;;;1.40;;
55288;SDS011;41154;45.394;5.734;2022-11-09T05:36:09;2.10;;;1.25;;
55288;SDS011;41154;45.394;5.734;2022-11-09T05:38:34;1.50;;;1.13;;
55288;SDS011;41154;45.394;5.734;2022-11-09T05:41:00;3.55;;;1.38;;
55288;SDS011;41154;45.394;5.734;2022-11-09T05:43:26;4.32;;;1.20;;
55288;SDS011;41154;45.394;5.734;2022-11-09T05:45:51;1.42;;;1.08;;
55288;SDS011;41154;45.394;5.734;2022-11-09T05:48:17;3.15;;;1.52;;
55288;SDS011;41154;45.394;5.734;2022-11-09T05:50:43;4.13;;;0.90;;
55288;SDS011;41154;45.394;5.734;2022-11-09T05:53:38;3.38;;;1.20;;
55288;SDS011;41154;45.394;5.734;2022-11-09T05:56:06;1.92;;;1.20;;
55288;SDS011;41154;45.394;5.734;2022-11-09T05:58:34;3.20;;;1.30;;
55288;SDS011;41154;45.394;5.734;2022-11-09T06:01:04;4.95;;;1.20;;
55288;SDS011;41154;45.394;5.734;2022-11-09T06:03:31;2.53;;;1.50;;
55288;SDS011;41154;45.394;5.734;2022-11-09T06:06:01;2.47;;;1.30;;
55288;SDS011;41154;45.394;5.734;2022-11-09T06:08:29;3.17;;;1.42;;
55288;SDS011;41154;45.394;5.734;2022-11-09T06:11:02;2.53;;;1.42;;
55288;SDS011;41154;45.394;5.734;2022-11-09T06:13:29;1.77;;;1.17;;
55288;SDS011;41154;45.394;5.734;2022-11-09T06:15:56;3.05;;;1.35;;
55288;SDS011;41154;45.394;5.734;2022-11-09T06:18:24;2.88;;;1.30;;
55288;SDS011;41154;45.394;5.734;2022-11-09T06:20:51;3.20;;;1.25;;
55288;SDS011;41154;45.394;5.734;2022-11-09T06:23:18;3.15;;;1.40;;
55288;SDS011;41154;45.394;5.734;2022-11-09T06:25:50;2.88;;;1.48;;
55288;SDS011;41154;45.394;5.734;2022-11-09T06:28:17;3.28;;;1.20;;
55288;SDS011;41154;45.394;5.734;2022-11-09T06:30:43;5.05;;;1.95;;
55288;SDS011;41154;45.394;5.734;2022-11-09T06:33:08;3.38;;;1.80;;
55288;SDS011;41154;45.394;5.734;2022-11-09T06:35:34;2.30;;;1.50;;
55288;SDS011;41154;45.394;5.734;2022-11-09T06:38:00;3.33;;;1.50;;
55288;SDS011;41154;45.394;5.734;2022-11-09T06:40:26;6.88;;;2.75;;
55288;SDS011;41154;45.394;5.734;2022-11-09T06:42:54;11.50;;;3.78;;
55288;SDS011;41154;45.394;5.734;2022-11-09T06:45:21;8.90;;;3.97;;
55288;SDS011;41154;45.394;5.734;2022-11-09T06:47:46;4.60;;;2.20;;
55288;SDS011;41154;45.394;5.734;2022-11-09T06:50:12;9.50;;;4.38;;
55288;SDS011;41154;45.394;5.734;2022-11-09T06:52:38;6.57;;;2.80;;
55288;SDS011;41154;45.394;5.734;2022-11-09T06:55:04;5.00;;;2.05;;
55288;SDS011;41154;45.394;5.734;2022-11-09T06:57:30;7.20;;;2.85;;
55288;SDS011;41154;45.394;5.734;2022-11-09T06:59:55;4.72;;;2.42;;
55288;SDS011;41154;45.394;5.734;2022-11-09T07:02:25;2.35;;;1.65;;
55288;SDS011;41154;45.394;5.734;2022-11-09T07:04:51;2.92;;;1.67;;
55288;SDS011;41154;45.394;5.734;2022-11-09T07:07:16;3.25;;;1.60;;
55288;SDS011;41154;45.394;5.734;2022-11-09T07:09:42;3.70;;;1.60;;
55288;SDS011;41154;45.394;5.734;2022-11-09T07:12:08;4.25;;;1.70;;
55288;SDS011;41154;45.394;5.734;2022-11-09T07:14:34;4.38;;;2.30;;
55288;SDS011;41154;45.394;5.734;2022-11-09T07:17:00;2.58;;;1.70;;
55288;SDS011;41154;45.394;5.734;2022-11-09T07:19:29;4.20;;;1.88;;
55288;SDS011;41154;45.394;5.734;2022-11-09T07:21:55;3.85;;;2.10;;
55288;SDS011;41154;45.394;5.734;2022-11-09T07:24:22;6.55;;;4.07;;
55288;SDS011;41154;45.394;5.734;2022-11-09T07:26:48;11.40;;;5.30;;
55288;SDS011;41154;45.394;5.734;2022-11-09T07:29:14;4.45;;;2.90;;
55288;SDS011;41154;45.394;5.734;2022-11-09T07:31:40;8.88;;;4.05;;
55288;SDS011;41154;45.394;5.734;2022-11-09T07:34:06;8.07;;;5.35;;
55288;SDS011;41154;45.394;5.734;2022-11-09T07:36:32;7.63;;;3.92;;
55288;SDS011;41154;45.394;5.734;2022-11-09T07:39:00;7.35;;;3.95;;
55288;SDS011;41154;45.394;5.734;2022-11-09T07:41:27;7.15;;;3.75;;
55288;SDS011;41154;45.394;5.734;2022-11-09T07:43:52;5.20;;;3.28;;
55288;SDS011;41154;45.394;5.734;2022-11-09T07:46:19;5.88;;;3.75;;
55288;SDS011;41154;45.394;5.734;2022-11-09T07:48:44;6.80;;;3.53;;
55288;SDS011;41154;45.394;5.734;2022-11-09T07:51:10;9.35;;;3.55;;
55288;SDS011;41154;45.394;5.734;2022-11-09T07:53:36;9.25;;;4.05;;
55288;SDS011;41154;45.394;5.734;2022-11-09T07:56:02;8.77;;;4.47;;
55288;SDS011;41154;45.394;5.734;2022-11-09T07:58:28;8.23;;;3.80;;
55288;SDS011;41154;45.394;5.734;2022-11-09T08:00:54;7.55;;;3.00;;
55288;SDS011;41154;45.394;5.734;2022-11-09T08:03:21;3.33;;;2.00;;
55288;SDS011;41154;45.394;5.734;2022-11-09T08:05:48;8.55;;;4.70;;
55288;SDS011;41154;45.394;5.734;2022-11-09T08:08:15;7.07;;;4.10;;
55288;SDS011;41154;45.394;5.734;2022-11-09T08:10:41;8.07;;;4.95;;
55288;SDS011;41154;45.394;5.734;2022-11-09T08:13:10;5.82;;;3.85;;
55288;SDS011;41154;45.394;5.734;2022-11-09T08:15:38;6.50;;;3.35;;
55288;SDS011;41154;45.394;5.734;2022-11-09T08:18:15;5.75;;;2.83;;
55288;SDS011;41154;45.394;5.734;2022-11-09T08:20:43;4.97;;;3.40;;
55288;SDS011;41154;45.394;5.734;2022-11-09T08:23:12;3.78;;;2.67;;
55288;SDS011;41154;45.394;5.734;2022-11-09T08:25:39;5.22;;;3.17;;
55288;SDS011;41154;45.394;5.734;2022-11-09T08:28:05;3.55;;;2.25;;
55288;SDS011;41154;45.394;5.734;2022-11-09T08:30:32;3.33;;;2.42;;
55288;SDS011;41154;45.394;5.734;2022-11-09T08:32:58;136.57;;;38.10;;
55288;SDS011;41154;45.394;5.734;2022-11-09T08:35:25;56.03;;;20.77;;
55288;SDS011;41154;45.394;5.734;2022-11-09T08:37:51;86.53;;;27.02;;
55288;SDS011;41154;45.394;5.734;2022-11-09T08:40:19;45.75;;;16.48;;
55288;SDS011;41154;45.394;5.734;2022-11-09T08:42:47;15.18;;;7.38;;
55288;SDS011;41154;45.394;5.734;2022-11-09T08:45:14;10.73;;;5.57;;
55288;SDS011;41154;45.394;5.734;2022-11-09T08:47:40;7.45;;;4.68;;
55288;SDS011;41154;45.394;5.734;2022-11-09T08:50:07;8.02;;;3.67;;
55288;SDS011;41154;45.394;5.734;2022-11-09T08:52:34;6.28;;;3.53;;
55288;SDS011;41154;45.394;5.734;2022-11-09T08:55:00;7.63;;;4.30;;
55288;SDS011;41154;45.394;5.734;2022-11-09T08:57:27;12.38;;;4.90;;
55288;SDS011;41154;45.394;5.734;2022-11-09T08:59:53;7.18;;;4.10;;
55288;SDS011;41154;45.394;5.734;2022-11-09T09:02:18;5.40;;;3.70;;
55288;SDS011;41154;45.394;5.734;2022-11-09T09:04:45;5.35;;;3.65;;
55288;SDS011;41154;45.394;5.734;2022-11-09T09:07:11;7.25;;;3.08;;
55288;SDS011;41154;45.394;5.734;2022-11-09T09:09:37;5.43;;;3.40;;
55288;SDS011;41154;45.394;5.734;2022-11-09T09:12:04;5.43;;;3.67;;
55288;SDS011;41154;45.394;5.734;2022-11-09T09:14:31;5.78;;;4.25;;
55288;SDS011;41154;45.394;5.734;2022-11-09T09:16:57;5.28;;;3.53;;
55288;SDS011;41154;45.394;5.734;2022-11-09T09:19:23;7.10;;;4.03;;
55288;SDS011;41154;45.394;5.734;2022-11-09T09:21:48;5.38;;;3.47;;
55288;SDS011;41154;45.394;5.734;2022-11-09T09:24:14;4.95;;;3.30;;
55288;SDS011;41154;45.394;5.734;2022-11-09T09:26:40;3.33;;;2.70;;
55288;SDS011;41154;45.394;5.734;2022-11-09T09:29:05;6.88;;;3.60;;
55288;SDS011;41154;45.394;5.734;2022-11-09T09:31:31;5.28;;;3.47;;
55288;SDS011;41154;45.394;5.734;2022-11-09T09:33:57;6.43;;;3.47;;
55288;SDS011;41154;45.394;5.734;2022-11-09T09:36:23;5.18;;;3.28;;
55288;SDS011;41154;45.394;5.734;2022-11-09T09:38:50;6.25;;;3.80;;
55288;SDS011;41154;45.394;5.734;2022-11-09T09:47:02;5.03;;;2.92;;
55288;SDS011;41154;45.394;5.734;2022-11-09T09:49:45;8.52;;;5.43;;
55288;SDS011;41154;45.394;5.734;2022-11-09T09:52:17;10.52;;;6.13;;
55288;SDS011;41154;45.394;5.734;2022-11-09T09:55:13;5.85;;;3.53;;
55288;SDS011;41154;45.394;5.734;2022-11-09T09:57:43;6.03;;;3.58;;
55288;SDS011;41154;45.394;5.734;2022-11-09T10:00:18;7.88;;;5.95;;
55288;SDS011;41154;45.394;5.734;2022-11-09T10:02:47;9.77;;;6.03;;
55288;SDS011;41154;45.394;5.734;2022-11-09T10:05:15;8.30;;;5.70;;
55288;SDS011;41154;45.394;5.734;2022-11-09T10:24:34;5.30;;;4.13;;
55288;SDS011;41154;45.394;5.734;2022-11-09T10:27:29;6.22;;;4.10;;
55288;SDS011;41154;45.394;5.734;2022-11-09T10:30:23;5.65;;;4.00;;
55288;SDS011;41154;45.394;5.734;2022-11-09T10:32:56;8.38;;;4.72;;
55288;SDS011;41154;45.394;5.734;2022-11-09T10:35:41;9.93;;;4.75;;
55288;SDS011;41154;45.394;5.734;2022-11-09T10:41:11;8.38;;;5.28;;
55288;SDS011;41154;45.394;5.734;2022-11-09T10:43:58;6.00;;;3.78;;
55288;SDS011;41154;45.394;5.734;2022-11-09T10:53:25;11.82;;;5.90;;
55288;SDS011;41154;45.394;5.734;2022-11-09T10:59:25;12.90;;;5.93;;
55288;SDS011;41154;45.394;5.734;2022-11-09T11:07:55;6.47;;;3.97;;
55288;SDS011;41154;45.394;5.734;2022-11-09T11:10:40;4.70;;;2.92;;
55288;SDS011;41154;45.394;5.734;2022-11-09T11:13:24;7.30;;;3.95;;
55288;SDS011;41154;45.394;5.734;2022-11-09T11:16:23;5.95;;;3.38;;
55288;SDS011;41154;45.394;5.734;2022-11-09T11:19:26;7.72;;;3.28;;
55288;SDS011;41154;45.394;5.734;2022-11-09T11:22:22;4.78;;;2.60;;
55288;SDS011;41154;45.394;5.734;2022-11-09T11:25:21;5.82;;;2.92;;
55288;SDS011;41154;45.394;5.734;2022-11-09T11:28:16;4.93;;;2.88;;
55288;SDS011;41154;45.394;5.734;2022-11-09T11:31:06;6.70;;;3.05;;
55288;SDS011;41154;45.394;5.734;2022-11-09T11:33:56;4.05;;;2.72;;
55288;SDS011;41154;45.394;5.734;2022-11-09T11:40:09;8.20;;;5.68;;
55288;SDS011;41154;45.394;5.734;2022-11-09T11:43:09;12.93;;;5.90;;
55288;SDS011;41154;45.394;5.734;2022-11-09T12:16:40;9.15;;;5.45;;
55288;SDS011;41154;45.394;5.734;2022-11-09T12:23:22;8.30;;;5.50;;
55288;SDS011;41154;45.394;5.734;2022-11-09T12:29:46;12.98;;;7.28;;
55288;SDS011;41154;45.394;5.734;2022-11-09T12:41:20;9.48;;;5.80;;
55288;SDS011;41154;45.394;5.734;2022-11-09T12:47:05;9.13;;;5.63;;
55288;SDS011;41154;45.394;5.734;2022-11-09T12:49:58;10.52;;;5.43;;
55288;SDS011;41154;45.394;5.734;2022-11-09T12:52:43;8.35;;;5.38;;
55288;SDS011;41154;45.394;5.734;2022-11-09T12:58:33;15.52;;;9.60;;
55288;SDS011;41154;45.394;5.734;2022-11-09T13:04:10;8.70;;;5.88;;
55288;SDS011;41154;45.394;5.734;2022-11-09T13:09:52;7.28;;;4.82;;
55288;SDS011;41154;45.394;5.734;2022-11-09T13:12:38;11.35;;;7.05;;
55288;SDS011;41154;45.394;5.734;2022-11-09T13:15:26;5.75;;;3.95;;
55288;SDS011;41154;45.394;5.734;2022-11-09T13:18:25;4.47;;;3.65;;
55288;SDS011;41154;45.394;5.734;2022-11-09T13:27:43;7.55;;;3.85;;
55288;SDS011;41154;45.394;5.734;2022-11-09T13:30:37;7.35;;;4.40;;
55288;SDS011;41154;45.394;5.734;2022-11-09T13:33:26;9.88;;;4.85;;
55288;SDS011;41154;45.394;5.734;2022-11-09T13:36:14;8.43;;;5.88;;
55288;SDS011;41154;45.394;5.734;2022-11-09T13:45:42;6.22;;;3.70;;
55288;SDS011;41154;45.394;5.734;2022-11-09T13:48:39;5.45;;;3.65;;
55288;SDS011;41154;45.394;5.734;2022-11-09T13:54:29;4.53;;;2.85;;
55288;SDS011;41154;45.394;5.734;2022-11-09T13:57:17;4.32;;;2.38;;
55288;SDS011;41154;45.394;5.734;2022-11-09T14:00:04;3.22;;;2.47;;
55288;SDS011;41154;45.394;5.734;2022-11-09T14:03:00;3.22;;;1.60;;
55288;SDS011;41154;45.394;5.734;2022-11-09T14:05:50;4.43;;;1.80;;
55288;SDS011;41154;45.394;5.734;2022-11-09T14:08:39;2.33;;;1.55;;
55288;SDS011;41154;45.394;5.734;2022-11-09T14:14:48;2.53;;;1.95;;
55288;SDS011;41154;45.394;5.734;2022-11-09T14:17:43;5.18;;;2.83;;
55288;SDS011;41154;45.394;5.734;2022-11-09T14:21:09;6.68;;;4.00;;
55288;SDS011;41154;45.394;5.734;2022-11-09T14:24:20;4.28;;;3.15;;
55288;SDS011;41154;45.394;5.734;2022-11-09T14:29:58;7.97;;;4.07;;
55288;SDS011;41154;45.394;5.734;2022-11-09T14:32:47;8.20;;;4.45;;
55288;SDS011;41154;45.394;5.734;2022-11-09T14:35:34;5.00;;;3.50;;
55288;SDS011;41154;45.394;5.734;2022-11-09T14:41:19;7.72;;;3.88;;
55288;SDS011;41154;45.394;5.734;2022-11-09T14:44:08;6.10;;;3.20;;
55288;SDS011;41154;45.394;5.734;2022-11-09T14:47:03;4.28;;;3.15;;
55288;SDS011;41154;45.394;5.734;2022-11-09T14:49:49;6.72;;;3.60;;
55288;SDS011;41154;45.394;5.734;2022-11-09T14:52:34;2.20;;;1.90;;
55288;SDS011;41154;45.394;5.734;2022-11-09T14:55:19;4.15;;;2.60;;
55288;SDS011;41154;45.394;5.734;2022-11-09T14:58:08;6.25;;;4.00;;
55288;SDS011;41154;45.394;5.734;2022-11-09T15:06:58;5.65;;;3.67;;
55288;SDS011;41154;45.394;5.734;2022-11-09T15:09:46;6.13;;;3.17;;
55288;SDS011;41154;45.394;5.734;2022-11-09T15:12:34;7.93;;;3.95;;
55288;SDS011;41154;45.394;5.734;2022-11-09T15:15:23;6.50;;;4.25;;
55288;SDS011;41154;45.394;5.734;2022-11-09T15:18:14;5.47;;;3.75;;
55288;SDS011;41154;45.394;5.734;2022-11-09T15:26:55;5.47;;;3.88;;
55288;SDS011;41154;45.394;5.734;2022-11-09T15:29:41;6.00;;;3.88;;
55288;SDS011;41154;45.394;5.734;2022-11-09T15:32:26;6.95;;;3.90;;
55288;SDS011;41154;45.394;5.734;2022-11-09T15:35:16;6.00;;;4.13;;
55288;SDS011;41154;45.394;5.734;2022-11-09T15:38:01;5.55;;;3.10;;
55288;SDS011;41154;45.394;5.734;2022-11-09T15:40:46;7.32;;;4.00;;
55288;SDS011;41154;45.394;5.734;2022-11-09T15:43:31;5.30;;;3.30;;
55288;SDS011;41154;45.394;5.734;2022-11-09T15:46:31;7.65;;;3.35;;
55288;SDS011;41154;45.394;5.734;2022-11-09T15:49:23;7.07;;;4.07;;
55288;SDS011;41154;45.394;5.734;2022-11-09T15:52:09;5.45;;;3.25;;
55288;SDS011;41154;45.394;5.734;2022-11-09T15:54:54;6.15;;;3.40;;
55288;SDS011;41154;45.394;5.734;2022-11-09T15:57:39;5.88;;;3.60;;
55288;SDS011;41154;45.394;5.734;2022-11-09T16:00:24;6.22;;;4.07;;
55288;SDS011;41154;45.394;5.734;2022-11-09T16:03:09;3.83;;;2.50;;
55288;SDS011;41154;45.394;5.734;2022-11-09T16:05:54;3.58;;;2.55;;
55288;SDS011;41154;45.394;5.734;2022-11-09T16:08:38;11.93;;;6.60;;
55288;SDS011;41154;45.394;5.734;2022-11-09T16:11:23;4.07;;;2.50;;
55288;SDS011;41154;45.394;5.734;2022-11-09T16:14:07;7.68;;;3.85;;
55288;SDS011;41154;45.394;5.734;2022-11-09T16:16:52;15.43;;;9.93;;
55288;SDS011;41154;45.394;5.734;2022-11-09T16:19:36;4.93;;;3.20;;
55288;SDS011;41154;45.394;5.734;2022-11-09T16:22:22;2.60;;;1.83;;
55288;SDS011;41154;45.394;5.734;2022-11-09T16:25:07;3.58;;;1.83;;
55288;SDS011;41154;45.394;5.734;2022-11-09T16:27:52;1.75;;;1.33;;
55288;SDS011;41154;45.394;5.734;2022-11-09T16:30:36;2.65;;;1.63;;
55288;SDS011;41154;45.394;5.734;2022-11-09T16:33:20;3.42;;;2.20;;
55288;SDS011;41154;45.394;5.734;2022-11-09T16:36:07;3.42;;;1.83;;
55288;SDS011;41154;45.394;5.734;2022-11-09T16:38:54;4.00;;;1.50;;
55288;SDS011;41154;45.394;5.734;2022-11-09T16:41:40;2.58;;;1.83;;
55288;SDS011;41154;45.394;5.734;2022-11-09T16:44:29;6.10;;;2.30;;
55288;SDS011;41154;45.394;5.734;2022-11-09T16:47:17;1.70;;;1.27;;
55288;SDS011;41154;45.394;5.734;2022-11-09T16:50:05;3.13;;;1.77;;
55288;SDS011;41154;45.394;5.734;2022-11-09T16:52:50;13.15;;;5.10;;
55288;SDS011;41154;45.394;5.734;2022-11-09T16:55:34;2.03;;;1.48;;
55288;SDS011;41154;45.394;5.734;2022-11-09T16:58:18;2.20;;;1.10;;
55288;SDS011;41154;45.394;5.734;2022-11-09T17:01:03;0.95;;;0.70;;
55288;SDS011;41154;45.394;5.734;2022-11-09T17:03:48;1.10;;;0.52;;
55288;SDS011;41154;45.394;5.734;2022-11-09T17:06:33;0.55;;;0.40;;
55288;SDS011;41154;45.394;5.734;2022-11-09T17:09:18;0.45;;;0.40;;
55288;SDS011;41154;45.394;5.734;2022-11-09T17:12:03;0.98;;;0.50;;
55288;SDS011;41154;45.394;5.734;2022-11-09T17:14:48;0.63;;;0.50;;
55288;SDS011;41154;45.394;5.734;2022-11-09T17:17:32;1.00;;;0.38;;
55288;SDS011;41154;45.394;5.734;2022-11-09T17:20:16;0.60;;;0.40;;
55288;SDS011;41154;45.394;5.734;2022-11-09T17:23:01;1.83;;;0.90;;
55288;SDS011;41154;45.394;5.734;2022-11-09T17:25:59;0.45;;;0.32;;
55288;SDS011;41154;45.394;5.734;2022-11-09T17:28:45;0.90;;;0.30;;
55288;SDS011;41154;45.394;5.734;2022-11-09T17:31:30;1.48;;;0.77;;
55288;SDS011;41154;45.394;5.734;2022-11-09T17:34:15;0.85;;;0.57;;
55288;SDS011;41154;45.394;5.734;2022-11-09T17:37:00;1.20;;;0.50;;
55288;SDS011;41154;45.394;5.734;2022-11-09T17:39:45;0.57;;;0.50;;
55288;SDS011;41154;45.394;5.734;2022-11-09T17:42:29;2.95;;;1.00;;
55288;SDS011;41154;45.394;5.734;2022-11-09T17:45:17;1.52;;;1.10;;
55288;SDS011;41154;45.394;5.734;2022-11-09T17:48:01;4.72;;;3.05;;
55288;SDS011;41154;45.394;5.734;2022-11-09T17:50:47;6.57;;;3.45;;
55288;SDS011;41154;45.394;5.734;2022-11-09T17:53:31;4.75;;;3.20;;
55288;SDS011;41154;45.394;5.734;2022-11-09T17:56:16;3.60;;;2.50;;